Time;durP1;ratioP1;P1;durP2;ratioP2;P2;SDS_P1;SDS_P2;PMS_P1;PMS_P2;Temp;Humidity;BMP_temperature;BMP_pressure;BME280_temperature;BME280_humidity;BME280_pressure;Samples;Min_cycle;Max_cycle;Signal;HPM_P1;HPM_P2
2021/06/20 00:00:33;;;;;;;10.37;8.07;;;20.50;99.90;;;;;;5013384;28;20206;-76
2021/06/20 00:02:59;;;;;;;11.93;8.30;;;20.50;99.90;;;;;;5013038;28;20435;-76
2021/06/20 00:05:29;;;;;;;9.57;7.80;;;20.50;99.90;;;;;;5013066;28;20945;-76
2021/06/20 00:07:56;;;;;;;12.30;7.30;;;20.40;99.90;;;;;;5013484;28;20202;-76
2021/06/20 00:10:25;;;;;;;9.23;6.97;;;20.40;99.90;;;;;;5013337;28;20453;-77
2021/06/20 00:12:52;;;;;;;12.53;7.73;;;20.40;99.90;;;;;;5013100;28;20429;-76
2021/06/20 00:15:19;;;;;;;12.30;6.70;;;20.50;99.90;;;;;;5013020;28;20521;-76
2021/06/20 00:17:45;;;;;;;8.30;7.00;;;20.50;99.90;;;;;;5011996;28;20417;-76
2021/06/20 00:20:14;;;;;;;9.93;7.53;;;20.50;99.90;;;;;;5013019;28;20464;-76
2021/06/20 00:22:40;;;;;;;12.63;7.57;;;20.50;99.90;;;;;;5012981;28;20502;-76
2021/06/20 00:25:07;;;;;;;8.50;7.10;;;20.50;99.90;;;;;;5012935;28;20524;-76
2021/06/20 00:27:33;;;;;;;10.07;7.10;;;20.50;99.90;;;;;;5012952;28;20274;-76
2021/06/20 00:29:59;;;;;;;9.80;6.50;;;20.50;99.90;;;;;;5012894;28;20417;-76
2021/06/20 00:32:24;;;;;;;9.90;7.03;;;20.40;99.90;;;;;;5016278;28;20409;-77
2021/06/20 00:34:51;;;;;;;9.53;7.33;;;20.40;99.90;;;;;;5016095;28;20218;-78
2021/06/20 00:37:16;;;;;;;8.93;7.00;;;20.40;99.90;;;;;;5016712;28;20194;-77
2021/06/20 00:39:42;;;;;;;9.83;6.00;;;20.40;99.90;;;;;;5016390;28;20910;-76
2021/06/20 00:42:07;;;;;;;7.27;5.20;;;20.40;99.90;;;;;;5016345;28;20175;-77
2021/06/20 00:44:49;;;;;;;8.30;4.73;;;20.30;99.90;;;;;;5015843;28;20195;-76
2021/06/20 00:47:16;;;;;;;4.90;3.40;;;20.30;99.90;;;;;;5016221;28;20175;-76
2021/06/20 00:49:42;;;;;;;5.97;3.50;;;20.20;99.90;;;;;;5016183;28;20504;-76
2021/06/20 00:52:08;;;;;;;3.60;2.03;;;20.10;99.90;;;;;;5016286;28;21049;-76
2021/06/20 00:54:34;;;;;;;5.20;2.47;;;20.10;99.90;;;;;;5015382;28;20496;-77
2021/06/20 00:57:00;;;;;;;5.30;2.67;;;20.00;99.90;;;;;;5016162;28;20430;-75
2021/06/20 00:59:27;;;;;;;5.60;2.77;;;19.90;99.90;;;;;;5016213;28;20609;-76
2021/06/20 01:01:53;;;;;;;4.80;2.43;;;19.90;99.90;;;;;;5016318;28;20393;-76
2021/06/20 01:04:18;;;;;;;4.47;2.30;;;19.90;99.90;;;;;;5015601;28;20405;-76
2021/06/20 01:06:44;;;;;;;4.07;3.00;;;19.90;99.90;;;;;;5015740;28;20183;-75
2021/06/20 01:09:09;;;;;;;6.63;3.63;;;19.80;99.90;;;;;;5015965;28;20179;-75
2021/06/20 01:11:35;;;;;;;8.20;4.87;;;19.80;99.90;;;;;;5015814;28;20183;-76
2021/06/20 01:14:02;;;;;;;8.87;3.80;;;19.70;99.90;;;;;;5015391;28;20713;-75
2021/06/20 01:16:29;;;;;;;5.17;4.23;;;19.70;99.90;;;;;;5015707;28;20170;-76
2021/06/20 01:18:55;;;;;;;10.20;5.33;;;19.80;99.90;;;;;;5015572;28;20413;-76
2021/06/20 01:21:22;;;;;;;7.80;5.23;;;19.80;99.90;;;;;;5015632;28;20425;-76
2021/06/20 01:23:48;;;;;;;9.40;6.70;;;19.80;99.90;;;;;;5015562;28;20445;-76
2021/06/20 01:26:14;;;;;;;10.10;7.00;;;19.80;99.90;;;;;;5015728;28;20414;-76
2021/06/20 01:28:51;;;;;;;10.53;9.37;;;19.80;99.90;;;;;;5015512;28;20936;-76
2021/06/20 01:31:17;;;;;;;9.70;8.83;;;19.80;99.90;;;;;;5015581;28;20459;-77
2021/06/20 01:33:44;;;;;;;14.30;7.80;;;19.80;99.90;;;;;;5015245;28;20465;-76
2021/06/20 01:36:11;;;;;;;11.87;8.47;;;19.80;99.90;;;;;;5015331;28;20518;-76
2021/06/20 01:38:36;;;;;;;12.13;8.83;;;19.80;99.90;;;;;;5015437;28;20428;-76
2021/06/20 01:41:02;;;;;;;8.53;7.67;;;19.80;99.90;;;;;;5015304;28;20418;-75
2021/06/20 01:43:28;;;;;;;12.40;8.07;;;19.90;99.90;;;;;;5015071;28;20511;-76
2021/06/20 01:45:54;;;;;;;10.13;7.73;;;19.90;99.90;;;;;;5015379;28;20183;-76
2021/06/20 01:48:19;;;;;;;12.47;8.80;;;19.90;99.90;;;;;;5015672;28;20585;-76
2021/06/20 01:50:45;;;;;;;9.90;8.00;;;20.00;99.90;;;;;;5016200;28;20422;-76
2021/06/20 01:53:14;;;;;;;8.07;7.17;;;20.00;99.90;;;;;;5017279;28;20622;-77
2021/06/20 01:55:43;;;;;;;11.87;7.30;;;20.00;99.90;;;;;;4997882;28;20222;-76
2021/06/20 01:58:12;;;;;;;12.17;7.00;;;20.00;99.90;;;;;;5015189;28;20460;-75
2021/06/20 02:00:42;;;;;;;7.60;6.00;;;20.10;99.90;;;;;;5013741;28;20422;-76
2021/06/20 02:03:10;;;;;;;11.20;7.23;;;20.10;99.90;;;;;;5014560;28;20762;-76
2021/06/20 02:05:36;;;;;;;12.00;6.27;;;20.10;99.90;;;;;;5014700;28;20848;-76
2021/06/20 02:08:02;;;;;;;10.80;6.50;;;20.10;99.90;;;;;;5014772;28;20460;-76
2021/06/20 02:10:28;;;;;;;11.13;5.60;;;20.10;99.90;;;;;;5014978;28;20432;-75
2021/06/20 02:12:53;;;;;;;8.00;5.37;;;20.10;99.90;;;;;;5014331;28;20397;-76
2021/06/20 02:15:19;;;;;;;8.70;5.60;;;20.10;99.90;;;;;;5014462;28;20202;-76
2021/06/20 02:17:47;;;;;;;6.63;5.50;;;20.10;99.90;;;;;;5014713;28;20648;-76
2021/06/20 02:20:16;;;;;;;11.43;5.30;;;20.10;99.90;;;;;;5014819;28;20187;-76
2021/06/20 02:22:43;;;;;;;7.53;5.60;;;20.10;99.90;;;;;;5013353;28;20418;-76
2021/06/20 02:25:11;;;;;;;9.93;6.47;;;20.00;99.90;;;;;;5013334;28;20445;-76
2021/06/20 02:27:36;;;;;;;9.10;5.67;;;20.10;99.90;;;;;;5014566;28;20410;-76
2021/06/20 02:30:03;;;;;;;11.50;6.63;;;20.10;99.90;;;;;;5014459;28;20414;-75
2021/06/20 02:32:29;;;;;;;7.40;5.37;;;20.10;99.90;;;;;;5014395;28;20583;-76
2021/06/20 02:34:55;;;;;;;11.90;6.03;;;20.10;99.90;;;;;;5013861;28;20465;-77
2021/06/20 02:37:22;;;;;;;7.80;5.33;;;20.00;99.90;;;;;;5014186;28;20179;-75
2021/06/20 02:39:48;;;;;;;8.33;5.20;;;20.00;99.90;;;;;;5014202;28;20174;-76
2021/06/20 02:42:15;;;;;;;8.30;4.80;;;20.10;99.90;;;;;;5014242;28;20762;-76
2021/06/20 02:44:41;;;;;;;8.13;5.27;;;20.10;99.90;;;;;;5013857;28;21008;-76
2021/06/20 02:47:08;;;;;;;7.73;4.77;;;20.10;99.90;;;;;;5014084;28;20425;-76
2021/06/20 02:49:36;;;;;;;7.00;5.27;;;20.00;99.90;;;;;;5013943;28;20508;-75
2021/06/20 02:52:04;;;;;;;11.10;5.10;;;20.00;99.90;;;;;;5014081;28;20421;-75
2021/06/20 02:54:30;;;;;;;7.80;5.60;;;20.00;99.90;;;;;;5013112;28;20479;-75
2021/06/20 02:56:57;;;;;;;7.57;4.90;;;20.00;99.90;;;;;;5013873;28;20434;-76
2021/06/20 02:59:22;;;;;;;8.47;4.93;;;20.00;99.90;;;;;;5014095;28;20808;-75
2021/06/20 03:01:48;;;;;;;10.40;4.57;;;20.10;99.90;;;;;;5014117;28;20410;-75
2021/06/20 03:04:14;;;;;;;6.27;4.43;;;20.10;99.90;;;;;;5013555;28;20689;-75
2021/06/20 03:06:40;;;;;;;9.13;5.07;;;20.20;99.90;;;;;;5013762;28;20577;-76
2021/06/20 03:09:06;;;;;;;7.27;4.83;;;20.20;99.90;;;;;;5012502;28;20205;-75
2021/06/20 03:11:32;;;;;;;11.13;4.50;;;20.20;99.90;;;;;;5013665;28;20191;-77
2021/06/20 03:13:58;;;;;;;11.70;3.40;;;20.10;99.90;;;;;;5020624;23;20493;-75
2021/06/20 03:16:24;;;;;;;5.37;3.30;;;20.20;99.90;;;;;;5013749;28;20506;-75
2021/06/20 03:18:50;;;;;;;5.70;3.30;;;20.00;99.90;;;;;;5013597;28;20190;-75
2021/06/20 03:21:17;;;;;;;3.40;3.03;;;20.10;99.90;;;;;;5013813;28;20577;-75
2021/06/20 03:23:44;;;;;;;7.40;3.03;;;20.10;99.90;;;;;;5013220;28;20404;-75
2021/06/20 03:26:10;;;;;;;7.50;3.30;;;20.00;99.90;;;;;;5013596;28;20409;-75
2021/06/20 03:28:36;;;;;;;5.60;2.83;;;20.00;99.90;;;;;;5013564;28;20845;-75
2021/06/20 03:31:02;;;;;;;6.37;2.80;;;19.90;99.90;;;;;;5013681;28;20420;-75
2021/06/20 03:33:29;;;;;;;3.70;2.30;;;19.80;99.90;;;;;;5013165;28;20465;-75
2021/06/20 03:35:55;;;;;;;4.83;2.73;;;19.70;99.90;;;;;;5013605;28;20542;-75
2021/06/20 03:38:21;;;;;;;6.93;2.87;;;19.60;99.90;;;;;;5013594;28;20410;-75
2021/06/20 03:40:46;;;;;;;4.20;2.57;;;19.60;99.90;;;;;;5013488;28;20631;-75
2021/06/20 03:43:12;;;;;;;5.53;2.60;;;19.50;99.90;;;;;;5013110;28;20198;-75
2021/06/20 03:45:38;;;;;;;6.40;2.60;;;19.50;99.90;;;;;;5013231;28;20199;-75
2021/06/20 03:48:04;;;;;;;7.00;3.10;;;19.40;99.90;;;;;;5013352;28;20266;-74
2021/06/20 03:50:29;;;;;;;5.20;2.70;;;19.40;99.90;;;;;;5013516;28;20635;-75
2021/06/20 03:52:55;;;;;;;3.33;2.37;;;19.40;99.90;;;;;;5013013;28;20453;-75
2021/06/20 03:55:20;;;;;;;5.27;2.73;;;19.40;99.90;;;;;;5013172;28;20195;-75
2021/06/20 03:57:46;;;;;;;4.37;2.00;;;19.40;99.90;;;;;;5013179;28;20183;-75
2021/06/20 04:00:14;;;;;;;3.60;2.43;;;19.40;99.90;;;;;;5012158;28;20233;-75
2021/06/20 04:02:40;;;;;;;3.50;2.80;;;19.50;99.90;;;;;;5013800;28;20217;-75
2021/06/20 04:05:07;;;;;;;4.17;2.60;;;19.50;99.90;;;;;;5014130;28;20445;-74
2021/06/20 04:07:33;;;;;;;4.03;2.77;;;19.50;99.90;;;;;;5017121;28;20198;-74
2021/06/20 04:09:59;;;;;;;3.70;2.07;;;19.40;99.90;;;;;;5016906;28;20447;-74
2021/06/20 04:12:25;;;;;;;2.90;2.53;;;19.40;99.90;;;;;;5016919;28;20418;-75
2021/06/20 04:14:50;;;;;;;7.17;2.77;;;19.50;99.90;;;;;;5016566;28;20229;-74
2021/06/20 04:17:17;;;;;;;5.27;2.73;;;19.50;99.90;;;;;;5016866;28;20182;-74
2021/06/20 04:19:42;;;;;;;5.30;2.93;;;19.60;99.90;;;;;;5017225;28;20726;-74
2021/06/20 04:22:08;;;;;;;6.60;2.93;;;19.70;99.90;;;;;;5016815;28;20525;-74
2021/06/20 04:24:33;;;;;;;6.53;2.50;;;19.80;99.90;;;;;;5016362;28;20199;-75
2021/06/20 04:26:59;;;;;;;2.10;1.90;;;19.80;99.90;;;;;;5016921;28;20663;-75
2021/06/20 04:29:25;;;;;;;3.87;2.93;;;20.00;99.90;;;;;;5016690;28;20636;-75
2021/06/20 04:31:50;;;;;;;4.80;2.47;;;19.90;99.90;;;;;;5016732;28;20186;-75
2021/06/20 04:34:16;;;;;;;3.60;2.13;;;20.00;99.90;;;;;;5015204;28;20713;-75
2021/06/20 04:36:41;;;;;;;3.47;2.77;;;20.10;99.90;;;;;;5016657;28;20614;-75
2021/06/20 04:39:08;;;;;;;6.27;2.37;;;20.10;99.90;;;;;;5016461;28;20182;-75
2021/06/20 04:41:40;;;;;;;4.93;1.87;;;20.10;99.90;;;;;;5016383;28;20187;-75
2021/06/20 04:44:41;;;;;;;3.57;2.37;;;20.10;99.90;;;;;;5016007;28;20412;-75
2021/06/20 04:46:51;;;;;;;4.20;2.57;;;20.10;99.90;;;;;;5016214;28;20430;-74
2021/06/20 04:49:20;;;;;;;3.50;2.60;;;20.00;99.90;;;;;;5018270;28;20521;-74
2021/06/20 04:51:46;;;;;;;3.00;1.90;;;20.10;99.90;;;;;;5016577;28;20187;-74
2021/06/20 04:54:13;;;;;;;4.97;2.20;;;20.10;99.90;;;;;;5015742;28;21003;-76
2021/06/20 04:56:40;;;;;;;5.90;2.67;;;20.00;99.90;;;;;;5016031;28;20425;-74
2021/06/20 04:59:06;;;;;;;2.27;1.80;;;20.00;99.90;;;;;;5016086;28;20414;-75
2021/06/20 05:01:32;;;;;;;4.30;2.17;;;20.00;99.90;;;;;;5016026;28;20418;-74
2021/06/20 05:03:57;;;;;;;2.10;2.00;;;20.10;99.90;;;;;;5014459;28;20442;-74
2021/06/20 05:06:23;;;;;;;4.13;2.30;;;20.20;99.90;;;;;;5015771;28;20316;-74
2021/06/20 05:08:50;;;;;;;2.93;1.93;;;20.10;99.90;;;;;;5015973;28;20548;-74
2021/06/20 05:11:16;;;;;;;4.27;2.13;;;20.20;99.90;;;;;;5015928;28;20418;-74
2021/06/20 05:13:41;;;;;;;4.80;2.03;;;20.30;99.90;;;;;;5015408;28;20469;-74
2021/06/20 05:16:07;;;;;;;3.13;2.10;;;20.30;99.90;;;;;;5015575;28;20422;-74
2021/06/20 05:18:33;;;;;;;10.23;2.40;;;20.20;99.90;;;;;;5015680;28;20179;-74
2021/06/20 05:21:00;;;;;;;1.57;1.47;;;20.40;99.90;;;;;;5015893;28;20418;-74
2021/06/20 05:23:26;;;;;;;3.20;1.97;;;20.40;99.90;;;;;;5015339;28;20954;-74
2021/06/20 05:25:52;;;;;;;5.03;1.80;;;20.40;99.90;;;;;;5015582;28;20433;-74
2021/06/20 05:28:18;;;;;;;2.73;2.30;;;20.50;99.90;;;;;;5015512;28;20384;-74
2021/06/20 05:30:47;;;;;;;6.10;2.37;;;20.50;99.90;;;;;;5015350;28;20418;-74
2021/06/20 05:33:14;;;;;;;3.73;2.20;;;20.40;99.90;;;;;;5015412;28;20457;-74
2021/06/20 05:35:40;;;;;;;3.67;2.03;;;20.40;99.90;;;;;;5015524;28;20496;-74
2021/06/20 05:38:06;;;;;;;6.57;2.77;;;20.40;99.90;;;;;;5015516;28;20493;-74
2021/06/20 05:40:33;;;;;;;3.33;2.27;;;20.40;99.90;;;;;;5015198;28;20414;-77
2021/06/20 05:42:58;;;;;;;6.67;2.50;;;20.50;99.90;;;;;;5015079;28;20961;-74
2021/06/20 05:45:24;;;;;;;4.03;2.20;;;20.60;99.90;;;;;;5015129;28;20441;-74
2021/06/20 05:47:49;;;;;;;5.57;2.10;;;20.50;99.90;;;;;;5015111;28;20190;-74
2021/06/20 05:50:15;;;;;;;6.53;2.03;;;20.60;99.90;;;;;;5015167;28;20224;-74
2021/06/20 05:52:40;;;;;;;2.70;2.07;;;20.70;99.90;;;;;;5014987;28;20302;-75
2021/06/20 05:55:07;;;;;;;2.83;2.20;;;20.80;99.90;;;;;;5013287;28;20559;-74
2021/06/20 05:57:32;;;;;;;4.00;2.20;;;20.70;99.90;;;;;;5015052;28;20174;-74
2021/06/20 05:59:58;;;;;;;3.90;2.63;;;20.80;99.90;;;;;;5014864;28;20426;-74
2021/06/20 06:02:24;;;;;;;3.90;2.30;;;20.80;99.90;;;;;;5014952;28;20171;-75
2021/06/20 06:04:50;;;;;;;3.73;2.13;;;20.80;99.90;;;;;;5014324;28;20198;-75
2021/06/20 06:07:15;;;;;;;3.77;2.20;;;20.70;99.90;;;;;;5014722;28;20843;-74
2021/06/20 06:09:41;;;;;;;2.77;1.70;;;20.80;99.90;;;;;;5014907;28;20190;-74
2021/06/20 06:12:08;;;;;;;2.57;2.13;;;20.80;99.90;;;;;;5014783;28;20206;-75
2021/06/20 06:14:34;;;;;;;3.00;1.50;;;20.80;99.90;;;;;;5014122;28;20219;-74
2021/06/20 06:17:00;;;;;;;4.17;2.90;;;20.90;99.90;;;;;;5014386;28;20922;-74
2021/06/20 06:19:25;;;;;;;2.60;2.07;;;21.00;99.90;;;;;;5013258;28;20556;-74
2021/06/20 06:21:51;;;;;;;3.40;2.30;;;21.00;99.90;;;;;;5014438;28;20213;-75
2021/06/20 06:24:16;;;;;;;3.73;1.87;;;21.10;99.90;;;;;;5013298;28;20539;-74
2021/06/20 06:26:43;;;;;;;5.57;1.90;;;21.10;99.90;;;;;;5014671;28;20221;-75
2021/06/20 06:29:09;;;;;;;3.77;1.97;;;21.20;99.90;;;;;;5013866;28;20227;-74
2021/06/20 06:31:36;;;;;;;1.93;1.63;;;21.20;99.90;;;;;;5014319;28;20392;-74
2021/06/20 06:34:03;;;;;;;2.70;1.80;;;21.30;99.90;;;;;;5014066;28;20213;-74
2021/06/20 06:36:28;;;;;;;2.80;2.00;;;21.40;99.90;;;;;;5014266;28;20500;-75
2021/06/20 06:38:54;;;;;;;2.03;1.83;;;21.40;99.90;;;;;;5014139;28;20540;-74
2021/06/20 06:41:20;;;;;;;3.23;1.63;;;21.40;99.90;;;;;;5014159;28;20179;-74
2021/06/20 06:43:46;;;;;;;2.80;1.83;;;21.40;99.90;;;;;;5013754;28;20242;-74
2021/06/20 06:46:12;;;;;;;4.17;2.00;;;21.50;99.90;;;;;;5014055;28;20214;-75
2021/06/20 06:48:37;;;;;;;2.53;1.43;;;21.40;99.90;;;;;;5014086;28;20821;-74
2021/06/20 06:51:04;;;;;;;2.60;1.70;;;21.40;99.90;;;;;;5013945;28;20214;-74
2021/06/20 06:53:29;;;;;;;3.00;1.50;;;21.50;99.90;;;;;;5013386;28;20234;-74
2021/06/20 06:55:55;;;;;;;1.60;1.47;;;21.60;99.90;;;;;;5012663;28;20953;-74
2021/06/20 06:58:20;;;;;;;1.80;1.60;;;21.60;99.90;;;;;;5014100;28;20274;-75
2021/06/20 07:00:47;;;;;;;3.67;1.40;;;21.70;99.90;;;;;;5013773;28;20186;-75
2021/06/20 07:03:13;;;;;;;2.07;1.47;;;21.70;99.90;;;;;;5012337;28;20237;-74
2021/06/20 07:05:39;;;;;;;3.00;1.60;;;21.60;99.90;;;;;;5013633;28;20445;-73
2021/06/20 07:08:06;;;;;;;1.90;1.70;;;21.60;99.90;;;;;;5014061;28;20967;-74
2021/06/20 07:10:32;;;;;;;2.00;1.37;;;21.70;99.90;;;;;;5014082;28;20189;-74
2021/06/20 07:12:57;;;;;;;2.53;1.80;;;21.70;99.90;;;;;;5013354;28;20425;-75
2021/06/20 07:15:25;;;;;;;2.97;1.70;;;21.90;99.90;;;;;;5013669;28;20249;-75
2021/06/20 07:17:51;;;;;;;4.03;1.50;;;21.90;99.90;;;;;;5013567;28;20182;-74
2021/06/20 07:20:18;;;;;;;5.00;2.00;;;22.10;99.90;;;;;;5013643;28;20513;-74
2021/06/20 07:22:45;;;;;;;1.43;1.33;;;22.10;99.90;;;;;;5013356;28;20433;-78
2021/06/20 07:25:14;;;;;;;2.67;1.50;;;22.30;99.90;;;;;;5013793;28;20448;-75
2021/06/20 07:27:40;;;;;;;4.10;1.43;;;22.40;99.90;;;;;;5013576;28;20418;-74
2021/06/20 07:30:11;;;;;;;1.80;1.53;;;22.50;99.90;;;;;;5012620;28;20774;-75
2021/06/20 07:32:38;;;;;;;2.30;1.57;;;22.40;99.90;;;;;;5013864;28;20809;-74
2021/06/20 07:35:04;;;;;;;4.33;1.90;;;22.50;99.90;;;;;;5013356;28;20560;-74
2021/06/20 07:37:31;;;;;;;2.80;1.50;;;22.60;99.90;;;;;;5013741;28;20417;-75
2021/06/20 07:39:56;;;;;;;3.67;1.50;;;22.60;99.90;;;;;;5015747;28;20432;-74
2021/06/20 07:42:22;;;;;;;1.60;1.50;;;22.70;99.90;;;;;;5018437;28;20518;-75
2021/06/20 07:44:48;;;;;;;1.97;1.80;;;22.80;99.90;;;;;;5017210;28;20678;-75
2021/06/20 07:47:14;;;;;;;2.50;1.50;;;22.70;99.90;;;;;;5017577;28;20654;-75
2021/06/20 07:49:39;;;;;;;3.57;1.60;;;22.70;99.90;;;;;;5016153;28;20659;-75
2021/06/20 07:52:05;;;;;;;2.90;1.80;;;22.70;99.90;;;;;;5017349;28;20179;-75
2021/06/20 07:54:30;;;;;;;1.97;1.57;;;22.80;99.90;;;;;;5016651;28;20268;-74
2021/06/20 07:56:56;;;;;;;2.80;1.50;;;22.70;99.90;;;;;;5015957;28;20187;-74
2021/06/20 07:59:22;;;;;;;4.40;1.63;;;22.70;99.90;;;;;;5017268;28;20259;-74
2021/06/20 08:01:47;;;;;;;2.13;1.40;;;23.00;99.90;;;;;;5017007;28;20229;-75
2021/06/20 08:04:13;;;;;;;2.17;1.50;;;23.20;99.90;;;;;;5016660;28;20202;-74
2021/06/20 08:06:42;;;;;;;1.10;1.00;;;23.10;99.90;;;;;;5015884;28;20240;-79
2021/06/20 08:09:07;;;;;;;2.63;1.50;;;23.40;99.90;;;;;;5016708;28;20228;-76
2021/06/20 08:11:34;;;;;;;1.70;1.43;;;23.50;99.90;;;;;;5015897;28;20454;-75
2021/06/20 08:14:00;;;;;;;3.10;1.20;;;23.60;99.90;;;;;;5016647;28;20215;-74
2021/06/20 08:16:26;;;;;;;2.40;1.03;;;23.60;99.90;;;;;;5016952;28;20442;-74
2021/06/20 08:18:52;;;;;;;4.30;1.20;;;23.60;99.90;;;;;;5016571;28;20420;-73
2021/06/20 08:21:18;;;;;;;2.40;1.50;;;23.50;99.90;;;;;;5016928;28;20413;-74
2021/06/20 08:23:44;;;;;;;2.83;1.17;;;23.60;99.90;;;;;;5016340;28;20805;-75
2021/06/20 08:26:10;;;;;;;2.07;1.40;;;23.80;99.90;;;;;;5016666;28;20530;-74
2021/06/20 08:28:36;;;;;;;1.50;1.07;;;24.10;99.90;;;;;;5015591;28;20655;-75
2021/06/20 08:31:03;;;;;;;1.60;1.10;;;24.20;99.90;;;;;;5016573;28;20457;-75
2021/06/20 08:33:29;;;;;;;1.73;1.40;;;24.50;99.90;;;;;;5016395;28;20657;-75
2021/06/20 08:35:55;;;;;;;2.30;1.27;;;24.20;99.90;;;;;;5016382;28;20814;-74
2021/06/20 08:38:21;;;;;;;1.30;1.20;;;24.40;99.90;;;;;;5016629;28;20422;-74
2021/06/20 08:40:47;;;;;;;1.23;0.97;;;24.60;99.90;;;;;;5015163;28;20209;-74
2021/06/20 08:43:12;;;;;;;1.93;1.20;;;24.50;99.90;;;;;;5016279;28;20291;-73
2021/06/20 08:45:38;;;;;;;1.43;1.10;;;24.60;99.90;;;;;;5016217;28;20826;-75
2021/06/20 08:48:05;;;;;;;2.07;1.40;;;24.50;99.90;;;;;;5016252;28;20557;-75
2021/06/20 08:50:31;;;;;;;1.67;1.33;;;24.70;99.90;;;;;;5016122;28;20589;-72
2021/06/20 08:52:57;;;;;;;1.57;1.17;;;24.80;99.90;;;;;;5015288;28;20437;-73
2021/06/20 08:55:23;;;;;;;3.30;1.53;;;24.90;99.90;;;;;;5016182;28;20230;-74
2021/06/20 08:57:52;;;;;;;2.60;1.10;;;25.20;99.90;;;;;;5014860;28;20690;-74
2021/06/20 09:00:19;;;;;;;1.53;1.00;;;25.00;99.90;;;;;;5015834;28;20751;-75
2021/06/20 09:02:56;;;;;;;2.13;1.33;;;24.90;99.90;;;;;;5015735;28;20417;-75
2021/06/20 09:05:22;;;;;;;1.83;1.10;;;25.50;99.90;;;;;;5015869;28;20492;-75
2021/06/20 09:07:48;;;;;;;1.53;1.20;;;25.70;99.90;;;;;;5015835;28;20456;-73
2021/06/20 09:10:14;;;;;;;3.13;1.20;;;25.50;99.90;;;;;;5015747;28;20198;-74
2021/06/20 09:12:53;;;;;;;1.93;1.03;;;26.20;99.90;;;;;;5015699;28;20190;-74
2021/06/20 09:15:31;;;;;;;3.97;1.17;;;26.20;99.90;;;;;;5015580;28;20469;-74
2021/06/20 09:18:05;;;;;;;2.17;1.33;;;26.10;99.90;;;;;;5015964;28;20410;-74
2021/06/20 09:20:38;;;;;;;2.40;1.20;;;25.40;99.90;;;;;;5015805;28;20459;-73
2021/06/20 09:23:10;;;;;;;1.40;1.30;;;25.50;99.90;;;;;;5015520;28;20467;-73
2021/06/20 09:25:38;;;;;;;0.80;0.80;;;26.20;99.90;;;;;;5015663;28;20426;-75
2021/06/20 09:28:05;;;;;;;1.47;0.90;;;26.20;99.90;;;;;;5015599;28;20413;-73
2021/06/20 09:30:34;;;;;;;3.17;0.83;;;25.80;99.90;;;;;;5015390;28;20413;-73
2021/06/20 09:33:05;;;;;;;1.83;1.13;;;25.60;99.90;;;;;;5015128;28;20772;-76
2021/06/20 09:35:42;;;;;;;1.40;1.13;;;25.30;99.90;;;;;;5015356;28;20899;-74
2021/06/20 09:38:15;;;;;;;1.20;1.10;;;25.10;99.90;;;;;;5015459;28;20420;-74
2021/06/20 09:40:41;;;;;;;1.70;1.20;;;25.10;99.90;;;;;;5015256;28;20410;-74
2021/06/20 09:43:18;;;;;;;2.20;1.20;;;25.00;99.90;;;;;;5013862;28;20491;-74
2021/06/20 09:45:48;;;;;;;1.40;1.20;;;24.90;99.90;;;;;;5015434;28;20170;-74
2021/06/20 09:48:40;;;;;;;1.80;1.30;;;25.50;99.90;;;;;;5015350;28;20406;-73
2021/06/20 09:51:18;;;;;;;1.37;1.27;;;26.30;99.90;;;;;;5014910;28;20793;-74
2021/06/20 09:53:47;;;;;;;4.50;1.50;;;27.00;99.90;;;;;;5014591;28;20471;-73
2021/06/20 09:56:16;;;;;;;1.90;1.20;;;27.00;99.90;;;;;;5015115;28;20460;-74
2021/06/20 09:58:44;;;;;;;4.70;1.30;;;26.50;99.90;;;;;;5014729;28;20409;-74
2021/06/20 10:01:17;;;;;;;3.97;1.37;;;26.50;99.90;;;;;;5015086;28;20410;-74
2021/06/20 10:03:47;;;;;;;2.33;1.40;;;25.90;99.90;;;;;;5013477;28;20508;-73
2021/06/20 10:06:14;;;;;;;1.33;1.10;;;26.10;99.90;;;;;;5014694;28;20409;-75
2021/06/20 10:08:41;;;;;;;1.73;1.33;;;26.60;99.90;;;;;;5014624;28;20422;-75
2021/06/20 10:11:07;;;;;;;3.63;1.60;;;26.80;99.90;;;;;;5014541;28;20410;-75
2021/06/20 10:13:33;;;;;;;1.53;1.43;;;26.60;99.90;;;;;;5014019;28;20831;-74
2021/06/20 10:16:21;;;;;;;3.43;1.43;;;27.30;99.90;;;;;;5013440;28;20437;-76
2021/06/20 10:18:53;;;;;;;1.70;1.50;;;27.40;99.90;;;;;;5014454;28;20167;-74
2021/06/20 10:21:34;;;;;;;5.60;1.37;;;26.80;99.90;;;;;;5014661;28;20402;-74
2021/06/20 10:24:05;;;;;;;2.70;1.47;;;27.30;99.90;;;;;;5014301;28;20434;-76
2021/06/20 10:26:32;;;;;;;3.40;1.90;;;27.20;99.90;;;;;;5014473;28;20413;-73
2021/06/20 10:28:58;;;;;;;2.53;1.50;;;26.50;99.90;;;;;;5014269;28;20476;-75
2021/06/20 10:31:34;;;;;;;1.20;1.10;;;26.40;99.90;;;;;;5014405;28;20441;-75
2021/06/20 10:34:19;;;;;;;6.60;1.80;;;26.10;99.90;;;;;;5014197;28;20210;-75
2021/06/20 10:36:51;;;;;;;2.20;1.50;;;26.30;99.90;;;;;;5013185;28;20945;-75
2021/06/20 10:39:17;;;;;;;1.50;1.20;;;26.40;99.90;;;;;;5014268;28;20417;-75
2021/06/20 10:41:43;;;;;;;2.03;1.10;;;26.40;99.90;;;;;;5014189;28;20476;-76
2021/06/20 10:44:09;;;;;;;8.93;1.33;;;26.40;99.90;;;;;;5012525;28;20453;-74
2021/06/20 10:46:36;;;;;;;1.50;1.17;;;26.10;99.90;;;;;;5014142;28;20182;-77
2021/06/20 10:49:16;;;;;;;1.30;1.20;;;26.20;99.90;;;;;;5013801;28;20424;-75
2021/06/20 10:51:42;;;;;;;1.57;1.43;;;26.40;99.90;;;;;;5014194;28;20445;-74
2021/06/20 10:54:08;;;;;;;3.80;1.57;;;26.50;99.90;;;;;;5012321;28;20461;-75
2021/06/20 10:56:34;;;;;;;4.00;1.47;;;26.70;99.90;;;;;;5012627;28;20194;-75
2021/06/20 10:59:00;;;;;;;2.47;1.20;;;27.10;99.90;;;;;;5013777;28;20167;-77
2021/06/20 11:01:42;;;;;;;3.70;1.20;;;27.60;99.90;;;;;;5013867;28;20417;-75
2021/06/20 11:04:08;;;;;;;2.40;1.37;;;27.50;99.90;;;;;;5013587;28;20434;-74
2021/06/20 11:06:33;;;;;;;1.47;1.37;;;28.00;99.90;;;;;;5012421;28;20422;-75
2021/06/20 11:09:05;;;;;;;2.30;1.67;;;28.60;99.90;;;;;;5012555;28;20190;-76
2021/06/20 11:11:36;;;;;;;2.50;1.47;;;27.70;99.90;;;;;;5013611;28;20551;-75
2021/06/20 11:14:07;;;;;;;3.67;1.10;;;27.90;99.90;;;;;;5011416;28;20508;-73
2021/06/20 11:16:50;;;;;;;1.97;1.20;;;27.90;99.90;;;;;;5013618;28;20414;-75
2021/06/20 11:19:25;;;;;;;1.60;1.20;;;27.80;99.90;;;;;;5013496;28;20504;-75
2021/06/20 11:22:01;;;;;;;1.77;1.33;;;27.20;99.90;;;;;;5013774;28;20409;-76
2021/06/20 11:24:30;;;;;;;2.80;1.87;;;27.20;99.90;;;;;;5012525;28;20428;-76
2021/06/20 11:27:06;;;;;;;2.30;1.67;;;27.00;99.90;;;;;;5010373;28;20515;-75
2021/06/20 11:29:45;;;;;;;2.37;1.40;;;27.40;99.90;;;;;;5011319;28;20426;-76
2021/06/20 11:32:26;;;;;;;3.20;1.13;;;27.90;99.90;;;;;;5011065;28;20432;-77
2021/06/20 11:34:59;;;;;;;1.37;1.07;;;28.90;99.90;;;;;;5011707;28;20488;-76
2021/06/20 11:37:32;;;;;;;2.00;1.53;;;28.80;99.90;;;;;;5011593;28;20502;-75
2021/06/20 11:40:10;;;;;;;1.20;1.10;;;28.60;99.90;;;;;;5011608;28;20437;-75
2021/06/20 11:42:39;;;;;;;1.63;1.40;;;28.00;99.90;;;;;;5011621;28;20421;-77
2021/06/20 11:45:11;;;;;;;2.57;1.40;;;28.00;99.90;;;;;;5011987;28;20473;-76
2021/06/20 11:47:39;;;;;;;2.13;1.30;;;27.80;99.90;;;;;;5010905;28;20422;-76
2021/06/20 11:50:23;;;;;;;1.97;1.23;;;27.80;99.90;;;;;;5011953;28;20906;-76
2021/06/20 11:52:58;;;;;;;1.80;1.40;;;27.50;99.90;;;;;;5011688;28;20421;-75
2021/06/20 11:55:29;;;;;;;1.30;1.20;;;27.40;99.90;;;;;;5010683;28;20457;-76
2021/06/20 11:58:00;;;;;;;2.47;1.40;;;27.20;99.90;;;;;;5011616;28;20448;-74
2021/06/20 12:00:26;;;;;;;2.40;1.27;;;27.30;99.90;;;;;;5011306;28;20827;-76
2021/06/20 12:03:04;;;;;;;5.53;1.80;;;27.50;99.90;;;;;;5010734;28;20424;-75
2021/06/20 12:05:31;;;;;;;2.47;1.23;;;28.00;99.90;;;;;;5010835;28;20434;-75
2021/06/20 12:08:01;;;;;;;1.37;1.10;;;28.20;99.90;;;;;;5011287;28;20417;-76
2021/06/20 12:10:28;;;;;;;2.90;1.40;;;28.10;99.90;;;;;;5010696;28;20426;-76
2021/06/20 12:13:01;;;;;;;1.27;1.10;;;27.40;99.90;;;;;;5009832;28;20437;-75
2021/06/20 12:15:31;;;;;;;2.10;1.43;;;27.90;99.90;;;;;;5011119;28;20489;-75
2021/06/20 12:17:57;;;;;;;4.60;1.80;;;27.90;99.90;;;;;;5010768;28;20413;-74
2021/06/20 12:20:30;;;;;;;3.33;1.73;;;27.60;99.90;;;;;;5011075;28;20559;-75
2021/06/20 12:22:56;;;;;;;2.87;1.40;;;27.40;99.90;;;;;;5011099;28;20418;-75
2021/06/20 12:25:22;;;;;;;3.30;1.87;;;27.30;99.90;;;;;;5010392;28;20492;-74
2021/06/20 12:27:47;;;;;;;1.73;1.50;;;27.40;99.90;;;;;;5012244;28;20206;-75
2021/06/20 12:30:24;;;;;;;2.30;1.70;;;27.80;99.90;;;;;;5014683;28;20194;-73
2021/06/20 12:32:51;;;;;;;3.67;1.27;;;27.30;99.90;;;;;;5014030;28;20195;-76
2021/06/20 12:35:27;;;;;;;1.10;1.00;;;27.30;99.90;;;;;;5014581;28;20476;-74
2021/06/20 12:37:55;;;;;;;2.50;1.30;;;27.50;99.90;;;;;;5013263;28;20430;-74
2021/06/20 12:40:25;;;;;;;2.50;1.30;;;27.40;99.90;;;;;;5014031;28;20478;-74
2021/06/20 12:42:53;;;;;;;5.33;2.10;;;27.30;99.90;;;;;;5014334;28;20759;-73
2021/06/20 12:45:28;;;;;;;2.70;1.23;;;27.50;99.90;;;;;;5014514;28;20454;-74
2021/06/20 12:47:55;;;;;;;2.07;1.30;;;27.60;99.90;;;;;;5013680;28;20421;-76